• Join FlightAware (Why Join?)
  • Login
  • US Flag 
03:36PM EDT


 

Airport Tracker/Info


-or-


 

Live Flight TrackerFlight Track Log ✈ RPA3496 ✈ 07-May-2014 ✈ KPHL - KLGA

Flight Track Log - Related Links

Times and Time Zones

All times are in EDT time to prevent confusion due to time zone crossing. See the RPA3496 flight status page for this flight to view local times or setup timezone preferences in your user account.

Time Position Orientation Groundspeed Altitude Reporting Facility
EDT Latitude Longitude Course Direction KTS MPH feet Rate Location/Type
02:49PM 39.8833 -75.2167 44° Northeast 163 188 1,300  Level Philadelphia TRACON
02:50PM 39.8833 -75.1000 90° East 284 327 4,800 2,100 Climbing Philadelphia TRACON
02:51PM 39.9000 -74.9833 79° East 288 331 6,800 1,080 Climbing Philadelphia TRACON
02:52PM 39.8500 -75.0039 90° East  Level FlightAware Approximate
02:53PM 39.8616 -74.9522 44° Northeast  Level FlightAware Approximate
02:53PM 39.9833 -74.8167 57° Northeast 287 330 8,100  Level New York TRACON
02:54PM 39.9042 -74.8990 44° Northeast  Level FlightAware Approximate
02:54PM 40.0333 -74.7500 46° Northeast 285 328 8,100  Level New York TRACON
02:55PM 40.0833 -74.6667 52° Northeast 286 329 8,100  Level New York TRACON
02:56PM 40.1333 -74.5833 52° Northeast 286 329 8,100  Level New York TRACON
02:57PM 40.2000 -74.5000 44° Northeast 290 334 8,100  Level New York TRACON
02:58PM 40.2500 -74.4333 45° Northeast 285 328 8,100 -240 Level New York TRACON
02:59PM 40.3167 -74.3667 37° Northeast 282 325 7,700 -540 Descending New York TRACON
03:00PM 40.3667 -74.3000 45° Northeast 276 318 7,100 -360 Descending New York TRACON
03:01PM 40.4167 -74.2500 37° Northeast 281 323 7,100  Level New York TRACON
03:02PM 40.4833 -74.1833 37° Northeast 277 319 7,100 -600 Level New York TRACON
03:03PM 40.5500 -74.1167 37° Northeast 277 319 6,000 -1,440 Descending New York TRACON
03:04PM 40.6000 -74.0667 37° Northeast 266 306 4,300 -960 Descending New York TRACON
03:05PM 40.6667 -74.0333 21° North 263 303 4,100 -120 Descending New York TRACON
03:06PM 40.7500 -74.0167 North 257 296 4,100  Level New York TRACON
03:07PM 40.8000 -73.9833 27° Northeast 262 302 4,100 -540 Level New York TRACON
03:08PM 40.8500 -73.9167 45° Northeast 254 292 3,100 -780 Descending New York TRACON
03:09PM 40.9000 -73.8667 37° Northeast 205 236 2,600 -600 Descending New York TRACON
03:10PM 40.8667 -73.8167 131° Southeast 177 204 2,000 -720 Descending New York TRACON
03:11PM 40.8333 -73.8333 201° Southwest 144 166 1,200 -720 Descending New York TRACON
03:12PM 40.8000 -73.8500 201° Southwest 116 133 600 -600 Descending New York TRACON
03:14PM 40.7667 -73.8667 180° South  Level FlightAware Approximate